sensor_id;sensor_type;location;lat;lon;timestamp;P1;durP1;ratioP1;P2;durP2;ratioP2
35897;SDS011;21997;47.118;15.346;2023-02-28T00:00:19;6.10;;;3.13;;
35897;SDS011;21997;47.118;15.346;2023-02-28T00:02:45;3.97;;;3.17;;
35897;SDS011;21997;47.118;15.346;2023-02-28T00:05:11;5.97;;;3.07;;
35897;SDS011;21997;47.118;15.346;2023-02-28T00:07:38;5.63;;;3.87;;
35897;SDS011;21997;47.118;15.346;2023-02-28T00:10:04;4.63;;;3.10;;
35897;SDS011;21997;47.118;15.346;2023-02-28T00:12:32;4.43;;;2.87;;
35897;SDS011;21997;47.118;15.346;2023-02-28T00:14:58;3.23;;;2.80;;
35897;SDS011;21997;47.118;15.346;2023-02-28T00:17:24;3.17;;;2.70;;
35897;SDS011;21997;47.118;15.346;2023-02-28T00:19:49;3.43;;;3.13;;
35897;SDS011;21997;47.118;15.346;2023-02-28T00:22:16;4.23;;;3.13;;
35897;SDS011;21997;47.118;15.346;2023-02-28T00:24:42;4.20;;;3.20;;
35897;SDS011;21997;47.118;15.346;2023-02-28T00:27:08;4.83;;;3.30;;
35897;SDS011;21997;47.118;15.346;2023-02-28T00:29:34;4.77;;;2.87;;
35897;SDS011;21997;47.118;15.346;2023-02-28T00:31:59;4.40;;;2.93;;
35897;SDS011;21997;47.118;15.346;2023-02-28T00:34:24;4.20;;;3.47;;
35897;SDS011;21997;47.118;15.346;2023-02-28T00:36:50;4.03;;;3.20;;
35897;SDS011;21997;47.118;15.346;2023-02-28T00:39:16;2.83;;;2.60;;
35897;SDS011;21997;47.118;15.346;2023-02-28T00:41:41;3.33;;;2.77;;
35897;SDS011;21997;47.118;15.346;2023-02-28T00:44:06;3.07;;;2.77;;
35897;SDS011;21997;47.118;15.346;2023-02-28T00:46:32;3.93;;;2.90;;
35897;SDS011;21997;47.118;15.346;2023-02-28T00:48:57;3.70;;;2.97;;
35897;SDS011;21997;47.118;15.346;2023-02-28T00:51:23;3.97;;;3.07;;
35897;SDS011;21997;47.118;15.346;2023-02-28T00:53:48;3.17;;;2.87;;
35897;SDS011;21997;47.118;15.346;2023-02-28T00:56:13;3.57;;;2.80;;
35897;SDS011;21997;47.118;15.346;2023-02-28T00:58:39;3.73;;;3.03;;
35897;SDS011;21997;47.118;15.346;2023-02-28T01:01:05;4.30;;;3.00;;
35897;SDS011;21997;47.118;15.346;2023-02-28T01:03:30;3.83;;;3.20;;
35897;SDS011;21997;47.118;15.346;2023-02-28T01:05:56;4.43;;;3.33;;
35897;SDS011;21997;47.118;15.346;2023-02-28T01:08:21;5.70;;;3.33;;
35897;SDS011;21997;47.118;15.346;2023-02-28T01:10:47;3.90;;;3.20;;
35897;SDS011;21997;47.118;15.346;2023-02-28T01:13:13;4.10;;;3.47;;
35897;SDS011;21997;47.118;15.346;2023-02-28T01:15:39;4.20;;;3.40;;
35897;SDS011;21997;47.118;15.346;2023-02-28T01:18:06;4.17;;;3.77;;
35897;SDS011;21997;47.118;15.346;2023-02-28T01:20:32;5.77;;;3.50;;
35897;SDS011;21997;47.118;15.346;2023-02-28T01:22:57;3.30;;;3.00;;
35897;SDS011;21997;47.118;15.346;2023-02-28T01:25:22;4.03;;;3.63;;
35897;SDS011;21997;47.118;15.346;2023-02-28T01:27:48;4.00;;;3.60;;
35897;SDS011;21997;47.118;15.346;2023-02-28T01:30:13;5.77;;;4.07;;
35897;SDS011;21997;47.118;15.346;2023-02-28T01:32:39;4.20;;;3.60;;
35897;SDS011;21997;47.118;15.346;2023-02-28T01:35:04;5.00;;;3.40;;
35897;SDS011;21997;47.118;15.346;2023-02-28T01:37:30;5.23;;;3.50;;
35897;SDS011;21997;47.118;15.346;2023-02-28T01:39:55;4.17;;;3.77;;
35897;SDS011;21997;47.118;15.346;2023-02-28T01:42:21;3.37;;;2.87;;
35897;SDS011;21997;47.118;15.346;2023-02-28T01:45:00;4.10;;;3.30;;
35897;SDS011;21997;47.118;15.346;2023-02-28T01:47:32;4.30;;;3.47;;
35897;SDS011;21997;47.118;15.346;2023-02-28T01:50:04;5.53;;;3.73;;
35897;SDS011;21997;47.118;15.346;2023-02-28T01:52:33;5.37;;;3.47;;
35897;SDS011;21997;47.118;15.346;2023-02-28T01:54:59;4.00;;;3.60;;
35897;SDS011;21997;47.118;15.346;2023-02-28T01:57:28;5.17;;;2.93;;
35897;SDS011;21997;47.118;15.346;2023-02-28T01:59:57;4.53;;;3.63;;
35897;SDS011;21997;47.118;15.346;2023-02-28T02:02:32;3.77;;;3.23;;
35897;SDS011;21997;47.118;15.346;2023-02-28T02:05:03;4.10;;;2.80;;
35897;SDS011;21997;47.118;15.346;2023-02-28T02:07:38;3.80;;;3.50;;
35897;SDS011;21997;47.118;15.346;2023-02-28T02:12:51;3.90;;;3.50;;
35897;SDS011;21997;47.118;15.346;2023-02-28T02:18:17;5.27;;;3.17;;
35897;SDS011;21997;47.118;15.346;2023-02-28T02:31:33;5.80;;;3.50;;
35897;SDS011;21997;47.118;15.346;2023-02-28T02:40:16;5.57;;;3.27;;
35897;SDS011;21997;47.118;15.346;2023-02-28T02:42:47;4.73;;;3.47;;
35897;SDS011;21997;47.118;15.346;2023-02-28T02:48:06;4.87;;;3.73;;
35897;SDS011;21997;47.118;15.346;2023-02-28T02:50:38;3.87;;;3.43;;
35897;SDS011;21997;47.118;15.346;2023-02-28T02:53:07;4.13;;;3.57;;
35897;SDS011;21997;47.118;15.346;2023-02-28T02:55:34;4.90;;;3.40;;
35897;SDS011;21997;47.118;15.346;2023-02-28T02:58:04;6.00;;;4.07;;
35897;SDS011;21997;47.118;15.346;2023-02-28T03:00:39;4.63;;;3.57;;
35897;SDS011;21997;47.118;15.346;2023-02-28T03:03:07;4.33;;;3.93;;
35897;SDS011;21997;47.118;15.346;2023-02-28T03:05:35;3.60;;;3.30;;
35897;SDS011;21997;47.118;15.346;2023-02-28T03:08:12;4.70;;;3.97;;
35897;SDS011;21997;47.118;15.346;2023-02-28T03:10:38;4.60;;;3.20;;
35897;SDS011;21997;47.118;15.346;2023-02-28T03:21:35;4.53;;;3.80;;
35897;SDS011;21997;47.118;15.346;2023-02-28T03:24:08;4.07;;;3.17;;
35897;SDS011;21997;47.118;15.346;2023-02-28T03:26:43;4.10;;;3.40;;
35897;SDS011;21997;47.118;15.346;2023-02-28T03:29:28;4.10;;;3.30;;
35897;SDS011;21997;47.118;15.346;2023-02-28T03:32:10;4.30;;;3.57;;
35897;SDS011;21997;47.118;15.346;2023-02-28T03:34:46;4.40;;;3.30;;
35897;SDS011;21997;47.118;15.346;2023-02-28T03:37:25;7.97;;;3.47;;
35897;SDS011;21997;47.118;15.346;2023-02-28T03:39:57;4.40;;;3.57;;
35897;SDS011;21997;47.118;15.346;2023-02-28T03:42:27;5.77;;;3.10;;
35897;SDS011;21997;47.118;15.346;2023-02-28T03:44:54;5.20;;;3.60;;
35897;SDS011;21997;47.118;15.346;2023-02-28T03:49:57;6.50;;;3.43;;
35897;SDS011;21997;47.118;15.346;2023-02-28T03:52:27;4.10;;;3.17;;
35897;SDS011;21997;47.118;15.346;2023-02-28T03:54:56;5.27;;;3.73;;
35897;SDS011;21997;47.118;15.346;2023-02-28T03:57:32;5.50;;;3.60;;
35897;SDS011;21997;47.118;15.346;2023-02-28T04:00:10;3.50;;;3.13;;
35897;SDS011;21997;47.118;15.346;2023-02-28T04:02:38;5.93;;;4.10;;
35897;SDS011;21997;47.118;15.346;2023-02-28T04:05:04;3.93;;;3.57;;
35897;SDS011;21997;47.118;15.346;2023-02-28T04:07:30;4.40;;;3.70;;
35897;SDS011;21997;47.118;15.346;2023-02-28T04:09:56;6.27;;;3.83;;
35897;SDS011;21997;47.118;15.346;2023-02-28T04:12:22;4.77;;;4.13;;
35897;SDS011;21997;47.118;15.346;2023-02-28T04:14:48;4.97;;;3.50;;
35897;SDS011;21997;47.118;15.346;2023-02-28T04:17:14;5.50;;;3.90;;
35897;SDS011;21997;47.118;15.346;2023-02-28T04:19:40;4.60;;;4.10;;
35897;SDS011;21997;47.118;15.346;2023-02-28T04:22:05;4.80;;;4.10;;
35897;SDS011;21997;47.118;15.346;2023-02-28T04:24:31;4.73;;;4.10;;
35897;SDS011;21997;47.118;15.346;2023-02-28T04:26:57;9.30;;;4.13;;
35897;SDS011;21997;47.118;15.346;2023-02-28T04:31:49;8.30;;;4.60;;
35897;SDS011;21997;47.118;15.346;2023-02-28T04:34:15;7.20;;;4.87;;
35897;SDS011;21997;47.118;15.346;2023-02-28T04:36:41;5.40;;;4.53;;
35897;SDS011;21997;47.118;15.346;2023-02-28T04:39:07;4.30;;;3.87;;
35897;SDS011;21997;47.118;15.346;2023-02-28T04:41:32;4.47;;;3.87;;
35897;SDS011;21997;47.118;15.346;2023-02-28T04:43:58;6.83;;;3.70;;
35897;SDS011;21997;47.118;15.346;2023-02-28T04:46:24;7.10;;;3.83;;
35897;SDS011;21997;47.118;15.346;2023-02-28T04:48:49;4.43;;;3.83;;
35897;SDS011;21997;47.118;15.346;2023-02-28T04:51:16;5.23;;;3.53;;
35897;SDS011;21997;47.118;15.346;2023-02-28T04:53:42;5.50;;;3.60;;
35897;SDS011;21997;47.118;15.346;2023-02-28T04:56:09;7.40;;;4.07;;
35897;SDS011;21997;47.118;15.346;2023-02-28T04:58:37;6.07;;;4.57;;
35897;SDS011;21997;47.118;15.346;2023-02-28T05:03:43;5.30;;;4.47;;
35897;SDS011;21997;47.118;15.346;2023-02-28T05:06:09;8.03;;;4.93;;
35897;SDS011;21997;47.118;15.346;2023-02-28T05:08:35;6.37;;;4.60;;
35897;SDS011;21997;47.118;15.346;2023-02-28T05:11:00;5.40;;;4.87;;
35897;SDS011;21997;47.118;15.346;2023-02-28T05:13:26;8.00;;;5.40;;
35897;SDS011;21997;47.118;15.346;2023-02-28T05:15:52;5.53;;;4.93;;
35897;SDS011;21997;47.118;15.346;2023-02-28T05:18:18;7.13;;;4.63;;
35897;SDS011;21997;47.118;15.346;2023-02-28T05:20:44;7.47;;;5.60;;
35897;SDS011;21997;47.118;15.346;2023-02-28T05:23:11;5.97;;;5.37;;
35897;SDS011;21997;47.118;15.346;2023-02-28T05:25:37;6.23;;;5.23;;
35897;SDS011;21997;47.118;15.346;2023-02-28T05:28:03;8.30;;;5.00;;
35897;SDS011;21997;47.118;15.346;2023-02-28T05:30:28;7.60;;;6.00;;
35897;SDS011;21997;47.118;15.346;2023-02-28T05:32:54;7.83;;;6.10;;
35897;SDS011;21997;47.118;15.346;2023-02-28T05:35:20;8.17;;;5.30;;
35897;SDS011;21997;47.118;15.346;2023-02-28T05:37:46;6.63;;;5.80;;
35897;SDS011;21997;47.118;15.346;2023-02-28T05:40:11;8.47;;;6.10;;
35897;SDS011;21997;47.118;15.346;2023-02-28T05:42:37;10.23;;;7.03;;
35897;SDS011;21997;47.118;15.346;2023-02-28T05:45:03;11.23;;;7.30;;
35897;SDS011;21997;47.118;15.346;2023-02-28T05:47:29;8.27;;;5.40;;
35897;SDS011;21997;47.118;15.346;2023-02-28T05:49:55;6.97;;;5.23;;
35897;SDS011;21997;47.118;15.346;2023-02-28T05:52:21;6.93;;;4.93;;
35897;SDS011;21997;47.118;15.346;2023-02-28T05:54:46;8.00;;;5.30;;
35897;SDS011;21997;47.118;15.346;2023-02-28T05:57:12;9.67;;;6.30;;
35897;SDS011;21997;47.118;15.346;2023-02-28T05:59:37;9.43;;;5.80;;
35897;SDS011;21997;47.118;15.346;2023-02-28T06:02:05;7.90;;;5.00;;
35897;SDS011;21997;47.118;15.346;2023-02-28T06:04:31;10.93;;;5.23;;
35897;SDS011;21997;47.118;15.346;2023-02-28T06:06:56;7.93;;;5.73;;
35897;SDS011;21997;47.118;15.346;2023-02-28T06:09:22;18.87;;;6.30;;
35897;SDS011;21997;47.118;15.346;2023-02-28T06:11:48;7.83;;;6.33;;
35897;SDS011;21997;47.118;15.346;2023-02-28T06:14:17;11.03;;;5.50;;
35897;SDS011;21997;47.118;15.346;2023-02-28T06:16:44;15.47;;;6.83;;
35897;SDS011;21997;47.118;15.346;2023-02-28T06:19:09;13.50;;;7.73;;
35897;SDS011;21997;47.118;15.346;2023-02-28T06:21:35;11.20;;;7.40;;
35897;SDS011;21997;47.118;15.346;2023-02-28T06:24:01;12.87;;;7.57;;
35897;SDS011;21997;47.118;15.346;2023-02-28T06:26:27;12.00;;;6.53;;
35897;SDS011;21997;47.118;15.346;2023-02-28T06:28:52;12.80;;;8.17;;
35897;SDS011;21997;47.118;15.346;2023-02-28T06:31:18;20.77;;;9.63;;
35897;SDS011;21997;47.118;15.346;2023-02-28T06:33:44;15.87;;;6.87;;
35897;SDS011;21997;47.118;15.346;2023-02-28T06:36:10;9.10;;;5.87;;
35897;SDS011;21997;47.118;15.346;2023-02-28T06:38:37;10.87;;;8.50;;
35897;SDS011;21997;47.118;15.346;2023-02-28T06:41:03;12.63;;;8.77;;
35897;SDS011;21997;47.118;15.346;2023-02-28T06:43:29;11.00;;;7.07;;
35897;SDS011;21997;47.118;15.346;2023-02-28T06:45:57;10.83;;;6.97;;
35897;SDS011;21997;47.118;15.346;2023-02-28T06:48:23;11.20;;;7.53;;
35897;SDS011;21997;47.118;15.346;2023-02-28T06:50:50;11.70;;;6.70;;
35897;SDS011;21997;47.118;15.346;2023-02-28T06:53:15;11.43;;;7.37;;
35897;SDS011;21997;47.118;15.346;2023-02-28T06:55:41;13.47;;;7.30;;
35897;SDS011;21997;47.118;15.346;2023-02-28T06:58:07;9.60;;;6.33;;
35897;SDS011;21997;47.118;15.346;2023-02-28T07:00:44;14.17;;;8.43;;
35897;SDS011;21997;47.118;15.346;2023-02-28T07:03:10;24.63;;;12.10;;
35897;SDS011;21997;47.118;15.346;2023-02-28T07:05:36;15.97;;;10.33;;
35897;SDS011;21997;47.118;15.346;2023-02-28T07:08:03;16.40;;;8.43;;
35897;SDS011;21997;47.118;15.346;2023-02-28T07:10:29;24.17;;;9.33;;
35897;SDS011;21997;47.118;15.346;2023-02-28T07:12:54;22.43;;;8.40;;
35897;SDS011;21997;47.118;15.346;2023-02-28T07:15:20;12.43;;;8.27;;
35897;SDS011;21997;47.118;15.346;2023-02-28T07:17:45;9.47;;;7.27;;
35897;SDS011;21997;47.118;15.346;2023-02-28T07:20:11;9.40;;;6.63;;
35897;SDS011;21997;47.118;15.346;2023-02-28T07:22:36;10.63;;;7.67;;
35897;SDS011;21997;47.118;15.346;2023-02-28T07:25:03;12.27;;;7.10;;
35897;SDS011;21997;47.118;15.346;2023-02-28T07:27:29;14.07;;;9.23;;
35897;SDS011;21997;47.118;15.346;2023-02-28T07:29:55;12.27;;;7.80;;
35897;SDS011;21997;47.118;15.346;2023-02-28T07:32:20;10.60;;;7.90;;
35897;SDS011;21997;47.118;15.346;2023-02-28T07:34:45;11.10;;;7.43;;
35897;SDS011;21997;47.118;15.346;2023-02-28T07:37:11;9.50;;;6.83;;
35897;SDS011;21997;47.118;15.346;2023-02-28T07:39:36;12.50;;;7.23;;
35897;SDS011;21997;47.118;15.346;2023-02-28T07:42:05;12.43;;;7.57;;
35897;SDS011;21997;47.118;15.346;2023-02-28T07:44:34;18.73;;;7.80;;
35897;SDS011;21997;47.118;15.346;2023-02-28T07:47:00;10.00;;;7.63;;
35897;SDS011;21997;47.118;15.346;2023-02-28T07:49:25;9.97;;;6.77;;
35897;SDS011;21997;47.118;15.346;2023-02-28T07:51:51;9.23;;;6.77;;
35897;SDS011;21997;47.118;15.346;2023-02-28T07:54:16;14.10;;;9.07;;
35897;SDS011;21997;47.118;15.346;2023-02-28T07:56:41;13.63;;;8.90;;
35897;SDS011;21997;47.118;15.346;2023-02-28T07:59:07;15.53;;;9.13;;
35897;SDS011;21997;47.118;15.346;2023-02-28T08:01:32;18.20;;;9.83;;
35897;SDS011;21997;47.118;15.346;2023-02-28T08:03:58;14.87;;;9.07;;
35897;SDS011;21997;47.118;15.346;2023-02-28T08:06:24;15.53;;;9.77;;
35897;SDS011;21997;47.118;15.346;2023-02-28T08:08:50;13.40;;;8.77;;
35897;SDS011;21997;47.118;15.346;2023-02-28T08:11:16;16.80;;;9.40;;
35897;SDS011;21997;47.118;15.346;2023-02-28T08:13:42;12.83;;;9.00;;
35897;SDS011;21997;47.118;15.346;2023-02-28T08:16:09;10.63;;;7.17;;
35897;SDS011;21997;47.118;15.346;2023-02-28T08:18:35;11.80;;;7.80;;
35897;SDS011;21997;47.118;15.346;2023-02-28T08:21:05;10.23;;;7.27;;
35897;SDS011;21997;47.118;15.346;2023-02-28T08:23:33;10.70;;;7.93;;
35897;SDS011;21997;47.118;15.346;2023-02-28T08:25:58;10.47;;;7.87;;
35897;SDS011;21997;47.118;15.346;2023-02-28T08:28:24;9.43;;;7.63;;
35897;SDS011;21997;47.118;15.346;2023-02-28T08:30:49;12.20;;;8.57;;
35897;SDS011;21997;47.118;15.346;2023-02-28T08:33:15;14.20;;;8.93;;
35897;SDS011;21997;47.118;15.346;2023-02-28T08:35:40;14.10;;;9.17;;
35897;SDS011;21997;47.118;15.346;2023-02-28T08:38:06;12.37;;;8.57;;
35897;SDS011;21997;47.118;15.346;2023-02-28T08:40:31;15.93;;;10.20;;
35897;SDS011;21997;47.118;15.346;2023-02-28T08:42:56;13.13;;;8.20;;
35897;SDS011;21997;47.118;15.346;2023-02-28T08:45:23;19.37;;;11.67;;
35897;SDS011;21997;47.118;15.346;2023-02-28T08:47:48;18.03;;;11.00;;
35897;SDS011;21997;47.118;15.346;2023-02-28T08:50:13;12.30;;;8.50;;
35897;SDS011;21997;47.118;15.346;2023-02-28T08:52:41;13.03;;;8.90;;
35897;SDS011;21997;47.118;15.346;2023-02-28T08:55:08;17.77;;;10.67;;
35897;SDS011;21997;47.118;15.346;2023-02-28T08:57:34;14.90;;;11.03;;
35897;SDS011;21997;47.118;15.346;2023-02-28T09:00:00;10.00;;;8.07;;
35897;SDS011;21997;47.118;15.346;2023-02-28T09:02:29;13.77;;;8.07;;
35897;SDS011;21997;47.118;15.346;2023-02-28T09:04:55;9.90;;;7.63;;
35897;SDS011;21997;47.118;15.346;2023-02-28T09:07:20;9.57;;;7.37;;
35897;SDS011;21997;47.118;15.346;2023-02-28T09:09:45;13.10;;;7.63;;
35897;SDS011;21997;47.118;15.346;2023-02-28T09:12:22;13.60;;;8.47;;
35897;SDS011;21997;47.118;15.346;2023-02-28T09:14:49;15.23;;;9.67;;
35897;SDS011;21997;47.118;15.346;2023-02-28T09:17:15;11.37;;;7.70;;
35897;SDS011;21997;47.118;15.346;2023-02-28T09:19:40;11.83;;;7.67;;
35897;SDS011;21997;47.118;15.346;2023-02-28T09:22:06;13.93;;;7.87;;
35897;SDS011;21997;47.118;15.346;2023-02-28T09:24:31;9.63;;;7.30;;
35897;SDS011;21997;47.118;15.346;2023-02-28T09:26:57;9.33;;;7.17;;
35897;SDS011;21997;47.118;15.346;2023-02-28T09:29:22;13.20;;;9.70;;
35897;SDS011;21997;47.118;15.346;2023-02-28T09:31:48;9.67;;;7.10;;
35897;SDS011;21997;47.118;15.346;2023-02-28T09:34:13;10.03;;;7.70;;
35897;SDS011;21997;47.118;15.346;2023-02-28T09:36:38;17.93;;;8.93;;
35897;SDS011;21997;47.118;15.346;2023-02-28T09:39:04;11.57;;;7.57;;
35897;SDS011;21997;47.118;15.346;2023-02-28T09:41:32;11.30;;;7.60;;
35897;SDS011;21997;47.118;15.346;2023-02-28T09:44:05;14.97;;;8.83;;
35897;SDS011;21997;47.118;15.346;2023-02-28T09:46:43;12.30;;;7.90;;
35897;SDS011;21997;47.118;15.346;2023-02-28T09:49:11;11.37;;;7.57;;
35897;SDS011;21997;47.118;15.346;2023-02-28T09:54:22;8.70;;;6.77;;
35897;SDS011;21997;47.118;15.346;2023-02-28T09:56:56;10.30;;;7.60;;
35897;SDS011;21997;47.118;15.346;2023-02-28T10:05:23;10.83;;;7.70;;
35897;SDS011;21997;47.118;15.346;2023-02-28T10:08:11;14.60;;;7.67;;
35897;SDS011;21997;47.118;15.346;2023-02-28T10:10:46;11.30;;;7.27;;
35897;SDS011;21997;47.118;15.346;2023-02-28T10:16:05;10.80;;;7.80;;
35897;SDS011;21997;47.118;15.346;2023-02-28T10:18:56;11.13;;;6.80;;
35897;SDS011;21997;47.118;15.346;2023-02-28T10:21:28;12.33;;;7.73;;
35897;SDS011;21997;47.118;15.346;2023-02-28T10:24:14;8.80;;;7.13;;
35897;SDS011;21997;47.118;15.346;2023-02-28T10:27:16;8.33;;;6.73;;
35897;SDS011;21997;47.118;15.346;2023-02-28T10:29:54;8.80;;;6.93;;
35897;SDS011;21997;47.118;15.346;2023-02-28T10:32:25;10.67;;;6.90;;
35897;SDS011;21997;47.118;15.346;2023-02-28T10:37:27;10.40;;;7.57;;
35897;SDS011;21997;47.118;15.346;2023-02-28T10:39:53;13.57;;;8.23;;
35897;SDS011;21997;47.118;15.346;2023-02-28T10:42:26;11.77;;;8.37;;
35897;SDS011;21997;47.118;15.346;2023-02-28T10:45:05;9.37;;;7.83;;
35897;SDS011;21997;47.118;15.346;2023-02-28T10:47:36;9.67;;;7.60;;
35897;SDS011;21997;47.118;15.346;2023-02-28T10:51:09;8.53;;;7.10;;
35897;SDS011;21997;47.118;15.346;2023-02-28T10:56:14;10.10;;;7.20;;
35897;SDS011;21997;47.118;15.346;2023-02-28T11:03:57;11.07;;;7.83;;
35897;SDS011;21997;47.118;15.346;2023-02-28T11:06:26;10.23;;;7.40;;
35897;SDS011;21997;47.118;15.346;2023-02-28T11:08:56;10.30;;;7.83;;
35897;SDS011;21997;47.118;15.346;2023-02-28T11:11:26;8.53;;;7.33;;
35897;SDS011;21997;47.118;15.346;2023-02-28T11:13:54;11.90;;;7.87;;
35897;SDS011;21997;47.118;15.346;2023-02-28T11:16:22;12.43;;;8.30;;
35897;SDS011;21997;47.118;15.346;2023-02-28T11:18:57;10.90;;;8.73;;
35897;SDS011;21997;47.118;15.346;2023-02-28T11:21:40;10.03;;;7.60;;
35897;SDS011;21997;47.118;15.346;2023-02-28T11:26:57;10.07;;;7.40;;
35897;SDS011;21997;47.118;15.346;2023-02-28T11:29:29;9.97;;;7.37;;
35897;SDS011;21997;47.118;15.346;2023-02-28T11:32:11;10.03;;;8.00;;
35897;SDS011;21997;47.118;15.346;2023-02-28T11:34:39;10.33;;;7.53;;
35897;SDS011;21997;47.118;15.346;2023-02-28T11:37:08;8.87;;;7.23;;
35897;SDS011;21997;47.118;15.346;2023-02-28T11:39:37;10.33;;;7.50;;
35897;SDS011;21997;47.118;15.346;2023-02-28T11:50:51;11.23;;;7.87;;
35897;SDS011;21997;47.118;15.346;2023-02-28T11:53:47;9.50;;;7.73;;
35897;SDS011;21997;47.118;15.346;2023-02-28T12:04:58;13.97;;;8.60;;
35897;SDS011;21997;47.118;15.346;2023-02-28T12:10:34;16.17;;;9.40;;
35897;SDS011;21997;47.118;15.346;2023-02-28T12:13:25;16.73;;;10.07;;
35897;SDS011;21997;47.118;15.346;2023-02-28T12:27:00;20.07;;;12.07;;
35897;SDS011;21997;47.118;15.346;2023-02-28T12:29:29;14.07;;;10.57;;
35897;SDS011;21997;47.118;15.346;2023-02-28T12:31:59;15.83;;;9.63;;
35897;SDS011;21997;47.118;15.346;2023-02-28T12:34:37;13.53;;;10.13;;
35897;SDS011;21997;47.118;15.346;2023-02-28T12:37:09;15.77;;;11.17;;
35897;SDS011;21997;47.118;15.346;2023-02-28T12:39:40;15.00;;;11.30;;
35897;SDS011;21997;47.118;15.346;2023-02-28T12:42:44;20.10;;;12.70;;
35897;SDS011;21997;47.118;15.346;2023-02-28T12:45:06;14.97;;;9.73;;
35897;SDS011;21997;47.118;15.346;2023-02-28T12:47:34;12.03;;;9.93;;
35897;SDS011;21997;47.118;15.346;2023-02-28T12:50:00;16.67;;;11.57;;
35897;SDS011;21997;47.118;15.346;2023-02-28T12:52:32;13.03;;;10.27;;
35897;SDS011;21997;47.118;15.346;2023-02-28T12:57:42;15.23;;;10.47;;
35897;SDS011;21997;47.118;15.346;2023-02-28T13:00:17;13.33;;;9.70;;
35897;SDS011;21997;47.118;15.346;2023-02-28T13:11:38;11.20;;;9.63;;
35897;SDS011;21997;47.118;15.346;2023-02-28T13:14:06;16.57;;;11.03;;
35897;SDS011;21997;47.118;15.346;2023-02-28T13:19:45;12.87;;;10.87;;
35897;SDS011;21997;47.118;15.346;2023-02-28T13:22:16;13.17;;;10.23;;
35897;SDS011;21997;47.118;15.346;2023-02-28T13:24:56;16.43;;;10.53;;
35897;SDS011;21997;47.118;15.346;2023-02-28T13:30:01;13.63;;;9.60;;
35897;SDS011;21997;47.118;15.346;2023-02-28T13:32:32;12.50;;;10.13;;
35897;SDS011;21997;47.118;15.346;2023-02-28T13:40:06;14.40;;;10.57;;
35897;SDS011;21997;47.118;15.346;2023-02-28T13:42:51;16.37;;;10.50;;
35897;SDS011;21997;47.118;15.346;2023-02-28T13:45:26;16.90;;;10.50;;
35897;SDS011;21997;47.118;15.346;2023-02-28T13:47:54;15.07;;;10.40;;
35897;SDS011;21997;47.118;15.346;2023-02-28T13:52:48;18.77;;;11.40;;
35897;SDS011;21997;47.118;15.346;2023-02-28T14:06:32;15.03;;;11.03;;
35897;SDS011;21997;47.118;15.346;2023-02-28T14:08:59;16.10;;;10.73;;
35897;SDS011;21997;47.118;15.346;2023-02-28T14:11:33;16.03;;;10.03;;
35897;SDS011;21997;47.118;15.346;2023-02-28T14:14:00;14.23;;;10.60;;
35897;SDS011;21997;47.118;15.346;2023-02-28T14:16:28;14.23;;;10.53;;
35897;SDS011;21997;47.118;15.346;2023-02-28T14:21:38;17.63;;;10.50;;
35897;SDS011;21997;47.118;15.346;2023-02-28T14:32:05;14.33;;;10.63;;
35897;SDS011;21997;47.118;15.346;2023-02-28T14:34:42;18.33;;;11.50;;
35897;SDS011;21997;47.118;15.346;2023-02-28T14:37:15;16.07;;;10.27;;
35897;SDS011;21997;47.118;15.346;2023-02-28T14:39:43;12.87;;;10.10;;
35897;SDS011;21997;47.118;15.346;2023-02-28T14:42:28;11.33;;;9.87;;
35897;SDS011;21997;47.118;15.346;2023-02-28T14:45:03;16.23;;;10.50;;
35897;SDS011;21997;47.118;15.346;2023-02-28T14:47:32;17.37;;;10.80;;
35897;SDS011;21997;47.118;15.346;2023-02-28T14:49:59;17.07;;;10.10;;
35897;SDS011;21997;47.118;15.346;2023-02-28T14:52:27;16.33;;;10.70;;
35897;SDS011;21997;47.118;15.346;2023-02-28T14:54:56;12.20;;;9.67;;
35897;SDS011;21997;47.118;15.346;2023-02-28T14:57:25;12.53;;;9.27;;
35897;SDS011;21997;47.118;15.346;2023-02-28T15:00:40;12.97;;;9.40;;
35897;SDS011;21997;47.118;15.346;2023-02-28T15:02:54;16.27;;;9.37;;
35897;SDS011;21997;47.118;15.346;2023-02-28T15:05:30;14.93;;;9.23;;
35897;SDS011;21997;47.118;15.346;2023-02-28T15:08:00;13.60;;;9.37;;
35897;SDS011;21997;47.118;15.346;2023-02-28T15:10:29;20.57;;;9.73;;
35897;SDS011;21997;47.118;15.346;2023-02-28T15:13:02;15.40;;;10.03;;
35897;SDS011;21997;47.118;15.346;2023-02-28T15:18:11;12.90;;;9.90;;
35897;SDS011;21997;47.118;15.346;2023-02-28T15:21:02;16.30;;;11.03;;
35897;SDS011;21997;47.118;15.346;2023-02-28T15:23:29;12.47;;;10.10;;
35897;SDS011;21997;47.118;15.346;2023-02-28T15:25:55;13.60;;;9.93;;
35897;SDS011;21997;47.118;15.346;2023-02-28T15:28:21;15.27;;;10.70;;
35897;SDS011;21997;47.118;15.346;2023-02-28T15:30:55;14.17;;;9.97;;
35897;SDS011;21997;47.118;15.346;2023-02-28T15:33:24;12.43;;;9.33;;
35897;SDS011;21997;47.118;15.346;2023-02-28T15:36:10;12.87;;;9.47;;
35897;SDS011;21997;47.118;15.346;2023-02-28T15:38:38;12.37;;;9.07;;
35897;SDS011;21997;47.118;15.346;2023-02-28T15:41:04;15.13;;;9.93;;
35897;SDS011;21997;47.118;15.346;2023-02-28T15:43:36;13.47;;;10.00;;
35897;SDS011;21997;47.118;15.346;2023-02-28T15:46:03;14.30;;;9.63;;
35897;SDS011;21997;47.118;15.346;2023-02-28T15:48:32;14.50;;;9.97;;
35897;SDS011;21997;47.118;15.346;2023-02-28T15:53:48;14.90;;;10.37;;
35897;SDS011;21997;47.118;15.346;2023-02-28T15:59:03;14.73;;;9.90;;
35897;SDS011;21997;47.118;15.346;2023-02-28T16:01:32;11.03;;;8.73;;
35897;SDS011;21997;47.118;15.346;2023-02-28T16:04:06;12.70;;;8.77;;
35897;SDS011;21997;47.118;15.346;2023-02-28T16:06:38;10.97;;;8.97;;
35897;SDS011;21997;47.118;15.346;2023-02-28T16:09:08;12.10;;;9.77;;
35897;SDS011;21997;47.118;15.346;2023-02-28T16:11:37;16.63;;;9.77;;
35897;SDS011;21997;47.118;15.346;2023-02-28T16:14:05;14.73;;;10.37;;
35897;SDS011;21997;47.118;15.346;2023-02-28T16:16:31;13.83;;;9.97;;
35897;SDS011;21997;47.118;15.346;2023-02-28T16:18:57;15.77;;;9.90;;
35897;SDS011;21997;47.118;15.346;2023-02-28T16:21:22;15.93;;;11.37;;
35897;SDS011;21997;47.118;15.346;2023-02-28T16:23:49;16.77;;;10.93;;
35897;SDS011;21997;47.118;15.346;2023-02-28T16:26:19;14.53;;;10.43;;
35897;SDS011;21997;47.118;15.346;2023-02-28T16:28:47;14.83;;;9.73;;
35897;SDS011;21997;47.118;15.346;2023-02-28T16:31:12;15.47;;;10.00;;
35897;SDS011;21997;47.118;15.346;2023-02-28T16:33:42;13.30;;;8.33;;
35897;SDS011;21997;47.118;15.346;2023-02-28T16:36:13;13.43;;;9.37;;
35897;SDS011;21997;47.118;15.346;2023-02-28T16:38:40;13.20;;;9.83;;
35897;SDS011;21997;47.118;15.346;2023-02-28T16:41:05;10.53;;;8.93;;
35897;SDS011;21997;47.118;15.346;2023-02-28T16:43:31;13.97;;;8.87;;
35897;SDS011;21997;47.118;15.346;2023-02-28T16:45:57;12.63;;;9.50;;
35897;SDS011;21997;47.118;15.346;2023-02-28T16:48:24;11.77;;;8.07;;
35897;SDS011;21997;47.118;15.346;2023-02-28T16:50:50;14.40;;;10.17;;
35897;SDS011;21997;47.118;15.346;2023-02-28T16:53:16;15.50;;;10.47;;
35897;SDS011;21997;47.118;15.346;2023-02-28T16:55:42;15.73;;;10.07;;
35897;SDS011;21997;47.118;15.346;2023-02-28T16:58:10;13.03;;;9.43;;
35897;SDS011;21997;47.118;15.346;2023-02-28T17:00:39;14.80;;;10.37;;
35897;SDS011;21997;47.118;15.346;2023-02-28T17:03:04;20.17;;;9.90;;
35897;SDS011;21997;47.118;15.346;2023-02-28T17:05:33;13.90;;;9.77;;
35897;SDS011;21997;47.118;15.346;2023-02-28T17:08:02;10.60;;;8.33;;